Time;durP1;ratioP1;P1;durP2;ratioP2;P2;SDS_P1;SDS_P2;PMS_P1;PMS_P2;Temp;Humidity;BMP_temperature;BMP_pressure;BME280_temperature;BME280_humidity;BME280_pressure;Samples;Min_cycle;Max_cycle;Signal;HPM_P1;HPM_P2
2021/03/12 00:02:13;;;;;;;2.20;0.80;;;;;;;;;;5078885;28;20281;-70
2021/03/12 00:04:40;;;;;;;1.70;0.90;;;;;;;;;;5078588;28;20257;-70
2021/03/12 00:07:07;;;;;;;3.17;0.70;;;;;;;;;;5085529;28;20262;-69
2021/03/12 00:09:34;;;;;;;1.47;0.70;;;;;;;;;;5099234;28;20206;-69
2021/03/12 00:12:01;;;;;;;4.97;1.10;;;;;;;;;;5098622;28;20237;-70
2021/03/12 00:14:28;;;;;;;3.10;0.97;;;;;;;;;;5098902;28;20229;-69
2021/03/12 00:16:55;;;;;;;3.10;1.20;;;;;;;;;;5099054;28;20232;-69
2021/03/12 00:19:24;;;;;;;3.33;1.10;;;;;;;;;;5098529;28;20209;-69
2021/03/12 00:21:51;;;;;;;1.80;0.77;;;;;;;;;;5098902;28;20269;-69
2021/03/12 00:24:18;;;;;;;2.57;0.93;;;;;;;;;;5099604;28;20257;-70
2021/03/12 00:26:45;;;;;;;3.67;0.60;;;;;;;;;;5100048;28;20252;-69
2021/03/12 00:29:12;;;;;;;1.40;0.90;;;;;;;;;;5098784;28;20217;-69
2021/03/12 00:31:39;;;;;;;1.47;0.70;;;;;;;;;;5081007;28;20635;-69
2021/03/12 00:34:06;;;;;;;2.73;1.00;;;;;;;;;;5078488;28;20707;-69
2021/03/12 00:36:34;;;;;;;4.90;1.03;;;;;;;;;;5090330;28;20648;-69
2021/03/12 00:39:01;;;;;;;1.70;0.83;;;;;;;;;;5078037;28;20316;-69
2021/03/12 00:41:28;;;;;;;2.23;1.10;;;;;;;;;;5078216;28;20206;-69
2021/03/12 00:43:55;;;;;;;4.60;1.17;;;;;;;;;;5078199;28;20202;-69
2021/03/12 00:46:22;;;;;;;2.10;0.93;;;;;;;;;;5079492;28;20249;-69
2021/03/12 00:48:50;;;;;;;1.13;0.77;;;;;;;;;;5077914;28;20289;-69
2021/03/12 00:51:17;;;;;;;4.67;0.70;;;;;;;;;;5077688;28;20314;-69
2021/03/12 00:53:45;;;;;;;2.73;1.10;;;;;;;;;;5078059;28;20290;-69
2021/03/12 00:56:12;;;;;;;3.93;1.00;;;;;;;;;;5076906;28;20230;-69
2021/03/12 00:58:39;;;;;;;3.50;1.07;;;;;;;;;;5077765;28;20248;-69
2021/03/12 01:01:06;;;;;;;2.40;1.23;;;;;;;;;;5078188;28;20244;-69
2021/03/12 01:03:33;;;;;;;1.43;0.90;;;;;;;;;;5078143;28;20206;-69
2021/03/12 01:06:00;;;;;;;2.47;1.13;;;;;;;;;;5077746;28;20227;-69
2021/03/12 01:08:27;;;;;;;3.13;1.33;;;;;;;;;;5079620;28;20206;-69
2021/03/12 01:10:55;;;;;;;0.73;0.70;;;;;;;;;;5079961;28;20697;-69
2021/03/12 01:13:22;;;;;;;3.80;1.37;;;;;;;;;;5078319;28;20268;-69
2021/03/12 01:15:49;;;;;;;2.03;1.00;;;;;;;;;;5077608;28;20260;-69
2021/03/12 01:18:16;;;;;;;2.40;1.10;;;;;;;;;;5077790;28;20210;-69
2021/03/12 01:20:43;;;;;;;3.83;1.20;;;;;;;;;;5089290;28;20237;-69
2021/03/12 01:23:10;;;;;;;2.47;0.90;;;;;;;;;;5097999;28;20736;-69
2021/03/12 01:25:39;;;;;;;1.80;1.00;;;;;;;;;;5097959;28;20355;-69
2021/03/12 01:28:07;;;;;;;2.93;1.03;;;;;;;;;;5097879;28;20259;-70
2021/03/12 01:30:35;;;;;;;2.73;1.00;;;;;;;;;;5089520;28;20242;-69
2021/03/12 01:33:03;;;;;;;4.30;1.30;;;;;;;;;;5077507;28;20262;-69
2021/03/12 01:35:30;;;;;;;2.37;1.20;;;;;;;;;;5089178;28;20563;-69
2021/03/12 01:37:57;;;;;;;2.83;1.13;;;;;;;;;;5077780;28;20602;-69
2021/03/12 01:40:25;;;;;;;1.87;1.00;;;;;;;;;;5078361;28;20288;-69
2021/03/12 01:42:53;;;;;;;1.73;0.80;;;;;;;;;;5077563;28;20233;-69
2021/03/12 01:45:22;;;;;;;1.93;0.90;;;;;;;;;;5078643;28;20226;-69
2021/03/12 01:47:50;;;;;;;4.57;0.93;;;;;;;;;;5077674;28;20206;-69
2021/03/12 01:50:18;;;;;;;3.10;1.10;;;;;;;;;;5077330;28;20260;-69
2021/03/12 01:52:45;;;;;;;2.67;0.80;;;;;;;;;;5078157;28;20313;-69
2021/03/12 01:55:14;;;;;;;1.73;0.60;;;;;;;;;;5078916;28;20594;-69
2021/03/12 01:57:42;;;;;;;7.03;1.10;;;;;;;;;;5078274;28;20206;-69
2021/03/12 02:00:11;;;;;;;1.97;1.00;;;;;;;;;;5077517;28;20218;-69
2021/03/12 02:02:40;;;;;;;3.70;1.30;;;;;;;;;;5077578;28;20238;-69
2021/03/12 02:05:08;;;;;;;4.60;1.20;;;;;;;;;;5076831;28;20236;-69
2021/03/12 02:07:36;;;;;;;4.00;1.20;;;;;;;;;;5079594;28;20294;-69
2021/03/12 02:10:04;;;;;;;2.43;1.10;;;;;;;;;;5080979;28;20749;-69
2021/03/12 02:12:34;;;;;;;2.90;1.20;;;;;;;;;;5080953;28;20246;-69
2021/03/12 02:15:04;;;;;;;5.40;1.47;;;;;;;;;;5080796;28;20291;-69
2021/03/12 02:17:36;;;;;;;4.83;1.57;;;;;;;;;;5081080;28;20265;-69
2021/03/12 02:20:16;;;;;;;1.90;1.23;;;;;;;;;;5086863;28;20202;-69
2021/03/12 02:22:45;;;;;;;4.70;1.30;;;;;;;;;;5101122;28;20288;-69
2021/03/12 02:25:14;;;;;;;4.47;0.83;;;;;;;;;;5101059;28;20324;-69
2021/03/12 02:27:42;;;;;;;3.30;1.13;;;;;;;;;;5100979;28;20232;-69
2021/03/12 02:30:10;;;;;;;4.97;1.20;;;;;;;;;;5096062;28;20206;-69
2021/03/12 02:32:39;;;;;;;3.97;1.33;;;;;;;;;;5080607;28;20261;-69
2021/03/12 02:35:12;;;;;;;2.83;1.07;;;;;;;;;;5089081;28;20648;-69
2021/03/12 02:37:39;;;;;;;1.43;0.97;;;;;;;;;;5082822;28;20720;-69
2021/03/12 02:40:08;;;;;;;2.83;0.97;;;;;;;;;;5081137;28;20214;-69
2021/03/12 02:42:36;;;;;;;3.70;1.20;;;;;;;;;;5080577;28;20289;-69
2021/03/12 02:45:05;;;;;;;5.37;0.93;;;;;;;;;;5080277;28;20275;-69
2021/03/12 02:48:02;;;;;;;3.10;1.10;;;;;;;;;;5080664;28;20241;-69
2021/03/12 02:51:00;;;;;;;;;;;;;;;;;;;;;
2021/03/12 02:54:18;;;;;;;3.67;1.20;;;;;;;;;;5093373;28;20232;-69
2021/03/12 02:56:55;;;;;;;4.00;1.37;;;;;;;;;;5080240;28;20206;-69
2021/03/12 02:59:22;;;;;;;3.03;1.20;;;;;;;;;;5080184;28;20206;-69
2021/03/12 03:01:51;;;;;;;4.07;1.47;;;;;;;;;;5080102;28;20284;-69
2021/03/12 03:04:20;;;;;;;2.80;1.00;;;;;;;;;;5079883;28;20313;-69
2021/03/12 03:06:48;;;;;;;3.93;1.20;;;;;;;;;;5079837;28;20689;-69
2021/03/12 03:09:15;;;;;;;3.03;1.10;;;;;;;;;;5080165;28;20294;-69
2021/03/12 03:11:43;;;;;;;3.47;1.30;;;;;;;;;;5079558;28;20242;-69
2021/03/12 03:14:10;;;;;;;4.40;1.20;;;;;;;;;;5079935;28;20273;-69
2021/03/12 03:16:38;;;;;;;3.70;1.00;;;;;;;;;;5079900;28;20274;-69
2021/03/12 03:19:07;;;;;;;8.57;1.60;;;;;;;;;;5078477;28;20803;-68
2021/03/12 03:21:34;;;;;;;3.43;1.40;;;;;;;;;;5098470;28;20236;-68
2021/03/12 03:24:03;;;;;;;2.83;1.27;;;;;;;;;;5100438;28;20205;-68
2021/03/12 03:26:30;;;;;;;3.67;1.30;;;;;;;;;;5100380;28;20213;-69
2021/03/12 03:28:57;;;;;;;1.57;1.20;;;;;;;;;;5099838;28;20208;-68
2021/03/12 03:31:24;;;;;;;3.30;1.27;;;;;;;;;;5084298;28;20238;-69
2021/03/12 03:33:51;;;;;;;2.33;1.13;;;;;;;;;;5079158;28;20268;-69
2021/03/12 03:36:19;;;;;;;3.23;1.43;;;;;;;;;;5091605;28;20261;-69
2021/03/12 03:38:46;;;;;;;3.77;1.10;;;;;;;;;;5079041;28;20605;-69
2021/03/12 03:41:15;;;;;;;5.37;1.13;;;;;;;;;;5086089;28;20240;-69
2021/03/12 03:43:43;;;;;;;5.57;1.60;;;;;;;;;;5099566;28;20204;-68
2021/03/12 03:46:11;;;;;;;5.03;1.60;;;;;;;;;;5091989;28;20230;-69
2021/03/12 03:48:39;;;;;;;5.40;1.23;;;;;;;;;;5078915;28;20210;-68
2021/03/12 03:51:07;;;;;;;2.07;1.07;;;;;;;;;;5079007;28;20233;-69
2021/03/12 03:53:36;;;;;;;4.23;1.13;;;;;;;;;;5078702;28;20260;-70
2021/03/12 03:56:03;;;;;;;5.50;1.23;;;;;;;;;;5078695;28;20778;-70
2021/03/12 03:58:31;;;;;;;3.97;1.10;;;;;;;;;;5079015;28;20244;-69
2021/03/12 04:00:59;;;;;;;3.40;1.27;;;;;;;;;;5079052;28;20238;-70
2021/03/12 04:03:26;;;;;;;3.33;1.33;;;;;;;;;;5078584;28;20228;-70
2021/03/12 04:05:54;;;;;;;3.87;1.10;;;;;;;;;;5079361;28;20305;-71
2021/03/12 04:08:21;;;;;;;5.17;0.97;;;;;;;;;;5092082;28;21758;-71
2021/03/12 04:10:49;;;;;;;5.37;1.20;;;;;;;;;;5090103;28;20284;-71
2021/03/12 04:13:17;;;;;;;4.07;1.20;;;;;;;;;;5090023;28;20222;-70
2021/03/12 04:15:44;;;;;;;6.87;1.27;;;;;;;;;;5088063;28;20249;-71
2021/03/12 04:18:12;;;;;;;2.50;0.90;;;;;;;;;;5086280;28;20203;-71
2021/03/12 04:20:39;;;;;;;3.63;1.00;;;;;;;;;;5087094;28;20566;-70
2021/03/12 04:23:07;;;;;;;5.13;1.30;;;;;;;;;;5088277;28;20225;-71
2021/03/12 04:25:34;;;;;;;3.53;1.10;;;;;;;;;;5088025;28;20305;-71
2021/03/12 04:28:02;;;;;;;3.37;1.07;;;;;;;;;;5087388;28;20294;-70
2021/03/12 04:30:29;;;;;;;6.67;1.47;;;;;;;;;;5087921;28;20741;-70
2021/03/12 04:32:57;;;;;;;6.03;1.53;;;;;;;;;;5086880;28;20253;-70
2021/03/12 04:35:24;;;;;;;5.80;1.80;;;;;;;;;;5096825;28;20768;-69
2021/03/12 04:37:52;;;;;;;3.57;1.90;;;;;;;;;;5077542;28;20293;-69
2021/03/12 04:40:19;;;;;;;7.80;1.53;;;;;;;;;;5077923;28;20244;-69
2021/03/12 04:42:47;;;;;;;1.73;1.13;;;;;;;;;;5077829;28;20256;-69
2021/03/12 04:45:16;;;;;;;6.47;1.40;;;;;;;;;;5078817;28;20313;-69
2021/03/12 04:47:44;;;;;;;8.43;1.70;;;;;;;;;;5077711;28;20245;-69
2021/03/12 04:50:12;;;;;;;4.17;1.10;;;;;;;;;;5077692;28;20240;-69
2021/03/12 04:52:39;;;;;;;6.93;1.47;;;;;;;;;;5078161;28;20210;-69
2021/03/12 04:55:08;;;;;;;7.37;1.37;;;;;;;;;;5078312;28;20238;-69
2021/03/12 04:57:35;;;;;;;1.20;1.10;;;;;;;;;;5078799;28;20210;-69
2021/03/12 05:00:03;;;;;;;3.37;1.20;;;;;;;;;;5078204;28;20245;-69
2021/03/12 05:02:33;;;;;;;3.57;1.23;;;;;;;;;;5078094;28;20238;-69
2021/03/12 05:05:00;;;;;;;5.57;1.47;;;;;;;;;;5077649;28;20237;-68
2021/03/12 05:07:27;;;;;;;8.27;1.50;;;;;;;;;;5078189;28;20727;-68
2021/03/12 05:09:54;;;;;;;3.87;1.30;;;;;;;;;;5077971;28;20214;-68
2021/03/12 05:12:21;;;;;;;5.20;1.73;;;;;;;;;;5077528;28;20611;-68
2021/03/12 05:14:48;;;;;;;10.00;1.73;;;;;;;;;;5077772;28;20325;-68
2021/03/12 05:17:16;;;;;;;4.97;1.60;;;;;;;;;;5077932;28;20260;-67
2021/03/12 05:19:44;;;;;;;4.10;1.67;;;;;;;;;;5080731;28;20610;-68
2021/03/12 05:22:11;;;;;;;4.00;1.30;;;;;;;;;;5098131;28;20209;-68
2021/03/12 05:24:38;;;;;;;7.03;1.60;;;;;;;;;;5097622;28;20317;-68
2021/03/12 05:27:06;;;;;;;3.57;1.43;;;;;;;;;;5097713;28;20240;-68
2021/03/12 05:29:33;;;;;;;6.73;1.83;;;;;;;;;;5098038;28;20201;-68
2021/03/12 05:32:00;;;;;;;4.67;1.03;;;;;;;;;;5077787;28;20239;-68
2021/03/12 05:34:28;;;;;;;4.63;1.37;;;;;;;;;;5080693;28;20249;-67
2021/03/12 05:36:55;;;;;;;9.73;1.73;;;;;;;;;;5086685;28;20289;-69
2021/03/12 05:39:22;;;;;;;4.67;1.27;;;;;;;;;;5078054;28;20770;-68
2021/03/12 05:41:50;;;;;;;3.57;1.67;;;;;;;;;;5079840;28;20313;-68
2021/03/12 05:44:17;;;;;;;6.27;1.50;;;;;;;;;;5082520;28;20662;-68
2021/03/12 05:46:45;;;;;;;3.10;1.10;;;;;;;;;;5082168;28;20210;-68
2021/03/12 05:49:13;;;;;;;6.23;1.50;;;;;;;;;;5081249;28;20217;-68
2021/03/12 05:51:40;;;;;;;4.20;1.33;;;;;;;;;;5081274;28;20206;-68
2021/03/12 05:54:09;;;;;;;4.17;2.03;;;;;;;;;;5081337;28;20265;-69
2021/03/12 05:56:36;;;;;;;6.40;1.90;;;;;;;;;;5081324;28;20206;-68
2021/03/12 05:59:03;;;;;;;2.63;1.47;;;;;;;;;;5081223;28;20199;-68
2021/03/12 06:01:36;;;;;;;5.37;2.27;;;;;;;;;;5081271;28;20210;-69
2021/03/12 06:04:03;;;;;;;4.43;2.00;;;;;;;;;;5081004;28;20198;-69
2021/03/12 06:06:30;;;;;;;2.57;1.50;;;;;;;;;;5081264;28;20289;-69
2021/03/12 06:08:57;;;;;;;7.97;2.50;;;;;;;;;;5081209;28;20214;-70
2021/03/12 06:11:42;;;;;;;6.23;2.20;;;;;;;;;;5080942;28;20206;-69
2021/03/12 06:14:10;;;;;;;6.30;2.17;;;;;;;;;;5080572;28;20230;-68
2021/03/12 06:16:37;;;;;;;8.93;2.53;;;;;;;;;;5080666;28;20649;-68
2021/03/12 06:19:14;;;;;;;5.50;2.03;;;;;;;;;;5080565;28;20210;-69
2021/03/12 06:21:44;;;;;;;6.33;1.97;;;;;;;;;;5100478;28;20204;-67
2021/03/12 06:24:28;;;;;;;9.00;2.27;;;;;;;;;;5100848;28;20297;-68
2021/03/12 06:26:56;;;;;;;17.30;3.70;;;;;;;;;;5101748;28;20202;-68
2021/03/12 06:29:32;;;;;;;6.90;3.13;;;;;;;;;;5101255;28;20288;-69
2021/03/12 06:31:59;;;;;;;3.53;2.40;;;;;;;;;;5080883;28;20245;-69
2021/03/12 06:34:26;;;;;;;6.60;2.53;;;;;;;;;;5083316;28;20565;-68
2021/03/12 06:36:53;;;;;;;7.50;2.70;;;;;;;;;;5090011;28;20237;-68
2021/03/12 06:39:29;;;;;;;6.57;2.80;;;;;;;;;;5080322;28;20670;-68
2021/03/12 06:41:56;;;;;;;5.83;2.43;;;;;;;;;;5080505;28;20265;-69
2021/03/12 06:44:24;;;;;;;4.23;2.00;;;;;;;;;;5080484;28;20310;-68
2021/03/12 06:46:52;;;;;;;7.60;2.17;;;;;;;;;;5081477;28;20629;-68
2021/03/12 06:49:19;;;;;;;6.57;2.20;;;;;;;;;;5079798;28;20203;-68
2021/03/12 06:51:56;;;;;;;5.67;2.43;;;;;;;;;;5080068;28;20234;-68
2021/03/12 06:54:24;;;;;;;5.13;2.30;;;;;;;;;;5079004;28;20257;-68
2021/03/12 06:56:51;;;;;;;8.13;2.13;;;;;;;;;;5079820;28;20616;-68
2021/03/12 06:59:28;;;;;;;6.43;1.60;;;;;;;;;;5080974;28;20214;-68
2021/03/12 07:02:00;;;;;;;6.30;2.13;;;;;;;;;;5080193;28;20236;-68
2021/03/12 07:04:28;;;;;;;7.47;1.70;;;;;;;;;;5079580;28;20740;-68
2021/03/12 07:06:56;;;;;;;6.80;1.73;;;;;;;;;;5080101;28;20233;-69
2021/03/12 07:09:24;;;;;;;6.03;1.60;;;;;;;;;;5080134;28;20206;-68
2021/03/12 07:11:55;;;;;;;9.17;2.00;;;;;;;;;;5081554;28;20202;-70
2021/03/12 07:14:22;;;;;;;3.10;1.37;;;;;;;;;;5080978;28;20312;-69
2021/03/12 07:16:56;;;;;;;5.43;1.67;;;;;;;;;;5088181;28;20238;-69
2021/03/12 07:19:25;;;;;;;5.03;2.13;;;;;;;;;;5092636;28;20213;-69
2021/03/12 07:21:57;;;;;;;9.27;2.40;;;;;;;;;;5099687;28;20233;-70
2021/03/12 07:24:25;;;;;;;7.93;2.00;;;;;;;;;;5096313;28;20716;-70
2021/03/12 07:26:55;;;;;;;5.17;1.70;;;;;;;;;;5099477;28;20232;-70
2021/03/12 07:29:23;;;;;;;5.63;1.53;;;;;;;;;;5099371;28;20641;-71
2021/03/12 07:31:51;;;;;;;5.23;1.93;;;;;;;;;;5085907;28;20730;-70
2021/03/12 07:34:20;;;;;;;8.93;1.80;;;;;;;;;;5098969;28;20272;-70
2021/03/12 07:36:48;;;;;;;9.50;2.20;;;;;;;;;;5099304;28;20646;-71
2021/03/12 07:39:17;;;;;;;12.60;1.40;;;;;;;;;;5099003;28;20221;-71
2021/03/12 07:41:45;;;;;;;8.97;1.73;;;;;;;;;;5099338;28;20205;-70
2021/03/12 07:44:13;;;;;;;7.20;1.50;;;;;;;;;;5097642;28;20233;-70
2021/03/12 07:46:40;;;;;;;4.57;1.47;;;;;;;;;;5093407;28;20206;-68
2021/03/12 07:49:25;;;;;;;2.00;1.13;;;;;;;;;;5089592;28;20283;-69
2021/03/12 07:51:53;;;;;;;5.63;1.60;;;;;;;;;;5071533;28;20646;-69
2021/03/12 07:54:45;;;;;;;4.53;1.20;;;;;;;;;;5079305;28;20635;-69
2021/03/12 07:57:12;;;;;;;2.50;1.27;;;;;;;;;;5081647;28;20249;-69
2021/03/12 07:59:57;;;;;;;9.67;1.60;;;;;;;;;;5078474;28;20272;-69
2021/03/12 08:02:24;;;;;;;5.00;1.40;;;;;;;;;;5090568;28;20293;-68
2021/03/12 08:04:51;;;;;;;6.60;2.67;;;;;;;;;;5085827;28;20222;-69
2021/03/12 08:07:35;;;;;;;7.47;2.60;;;;;;;;;;5079302;28;20217;-68
2021/03/12 08:10:17;;;;;;;8.77;2.20;;;;;;;;;;5079250;28;20217;-69
2021/03/12 08:12:49;;;;;;;7.27;2.43;;;;;;;;;;5078310;28;20206;-69
2021/03/12 08:15:18;;;;;;;4.80;2.30;;;;;;;;;;5078552;28;20226;-68
2021/03/12 08:17:47;;;;;;;9.40;2.73;;;;;;;;;;5079203;28;20206;-68
2021/03/12 08:20:27;;;;;;;13.63;2.47;;;;;;;;;;5080186;28;20198;-68
2021/03/12 08:22:56;;;;;;;5.43;1.93;;;;;;;;;;5078410;28;20210;-69
2021/03/12 08:25:53;;;;;;;7.37;2.23;;;;;;;;;;5078273;28;20221;-69
2021/03/12 08:28:31;;;;;;;6.93;2.23;;;;;;;;;;5078360;28;20202;-70
2021/03/12 08:30:59;;;;;;;7.13;2.60;;;;;;;;;;5078051;28;20276;-69
2021/03/12 08:33:30;;;;;;;12.70;4.63;;;;;;;;;;5078264;28;20210;-69
2021/03/12 08:35:58;;;;;;;9.10;3.53;;;;;;;;;;5080423;28;20232;-69
2021/03/12 08:38:43;;;;;;;12.20;3.83;;;;;;;;;;5078963;28;20234;-68
2021/03/12 08:41:14;;;;;;;11.70;4.27;;;;;;;;;;5078768;28;20206;-70
2021/03/12 08:43:42;;;;;;;9.57;4.23;;;;;;;;;;5078236;28;20206;-69
2021/03/12 08:46:16;;;;;;;7.87;3.60;;;;;;;;;;5080397;28;20226;-69
2021/03/12 08:48:44;;;;;;;13.13;3.37;;;;;;;;;;5078082;28;20206;-70
2021/03/12 08:51:13;;;;;;;4.33;3.10;;;;;;;;;;5081182;28;20206;-70
2021/03/12 08:53:41;;;;;;;9.67;3.03;;;;;;;;;;5094481;28;20655;-70
2021/03/12 08:56:09;;;;;;;10.00;3.40;;;;;;;;;;5079280;28;20280;-69
2021/03/12 08:58:37;;;;;;;7.77;3.50;;;;;;;;;;5086118;28;20268;-67
2021/03/12 09:01:09;;;;;;;6.93;2.80;;;;;;;;;;5093352;28;20213;-70
2021/03/12 09:03:36;;;;;;;8.97;2.83;;;;;;;;;;5088421;28;20202;-73
2021/03/12 09:06:05;;;;;;;5.77;1.93;;;;;;;;;;5081343;28;20625;-72
2021/03/12 09:08:33;;;;;;;7.13;1.77;;;;;;;;;;5078741;28;20217;-71
2021/03/12 09:11:00;;;;;;;7.50;1.77;;;;;;;;;;5078086;28;20205;-72
2021/03/12 09:13:29;;;;;;;8.00;1.83;;;;;;;;;;5077523;28;20613;-71
2021/03/12 09:15:58;;;;;;;6.90;2.07;;;;;;;;;;5077105;28;20229;-71
2021/03/12 09:18:41;;;;;;;5.83;1.63;;;;;;;;;;5077753;28;20210;-72
2021/03/12 09:21:11;;;;;;;4.97;1.80;;;;;;;;;;5081455;28;20563;-72
2021/03/12 09:23:39;;;;;;;5.07;1.43;;;;;;;;;;5077759;28;20202;-72
2021/03/12 09:26:08;;;;;;;5.13;1.80;;;;;;;;;;5088355;28;20260;-72
2021/03/12 09:28:37;;;;;;;6.33;1.90;;;;;;;;;;5097624;28;20726;-71
2021/03/12 09:31:05;;;;;;;7.73;1.73;;;;;;;;;;5098097;28;20205;-71
2021/03/12 09:33:33;;;;;;;6.33;1.80;;;;;;;;;;5097525;28;20209;-72
2021/03/12 09:36:02;;;;;;;7.53;1.93;;;;;;;;;;5088894;28;20218;-72
2021/03/12 09:38:37;;;;;;;3.73;1.83;;;;;;;;;;5077463;28;20234;-72
2021/03/12 09:41:14;;;;;;;12.17;2.57;;;;;;;;;;5077664;28;20206;-72
2021/03/12 09:43:43;;;;;;;7.80;2.13;;;;;;;;;;5093146;28;20207;-72
2021/03/12 09:46:11;;;;;;;3.33;1.40;;;;;;;;;;5097745;28;20231;-72
2021/03/12 09:48:40;;;;;;;3.83;2.00;;;;;;;;;;5077502;28;20206;-72
2021/03/12 09:51:08;;;;;;;4.33;1.60;;;;;;;;;;5077552;28;20213;-72
2021/03/12 09:53:37;;;;;;;6.23;1.87;;;;;;;;;;5080888;28;20203;-72
2021/03/12 09:56:05;;;;;;;6.07;1.40;;;;;;;;;;5077268;28;20257;-71
2021/03/12 09:58:32;;;;;;;5.00;1.60;;;;;;;;;;5077225;28;20216;-71
2021/03/12 10:01:13;;;;;;;7.23;1.73;;;;;;;;;;5095032;28;20210;-72
2021/03/12 10:03:41;;;;;;;5.50;1.50;;;;;;;;;;5097516;28;20216;-72
2021/03/12 10:06:12;;;;;;;5.83;1.73;;;;;;;;;;5097368;28;20237;-71
2021/03/12 10:08:57;;;;;;;6.07;1.50;;;;;;;;;;5097647;28;20201;-72
2021/03/12 10:11:25;;;;;;;3.13;1.40;;;;;;;;;;5097534;28;20205;-72
2021/03/12 10:13:55;;;;;;;5.97;1.80;;;;;;;;;;5097218;28;20233;-70
2021/03/12 10:16:24;;;;;;;5.43;1.77;;;;;;;;;;5092886;28;20212;-71
2021/03/12 10:18:56;;;;;;;9.70;1.80;;;;;;;;;;5077122;28;20289;-71
2021/03/12 10:21:24;;;;;;;4.80;1.73;;;;;;;;;;5077382;28;20206;-71
2021/03/12 10:23:51;;;;;;;6.97;2.23;;;;;;;;;;5077282;28;20214;-71
2021/03/12 10:26:22;;;;;;;7.43;1.83;;;;;;;;;;5077331;28;20231;-72
2021/03/12 10:28:49;;;;;;;5.67;1.60;;;;;;;;;;5079598;28;20206;-72
2021/03/12 10:31:17;;;;;;;5.50;1.57;;;;;;;;;;5080727;28;20217;-73
2021/03/12 10:33:49;;;;;;;4.53;1.37;;;;;;;;;;5088132;28;20209;-72
2021/03/12 10:36:18;;;;;;;7.40;2.13;;;;;;;;;;5088865;28;20226;-72
2021/03/12 10:38:46;;;;;;;7.37;1.80;;;;;;;;;;5080300;28;20230;-71
2021/03/12 10:41:16;;;;;;;4.13;1.53;;;;;;;;;;5080331;28;20206;-72
2021/03/12 10:43:43;;;;;;;7.90;2.10;;;;;;;;;;5080610;28;20213;-72
2021/03/12 10:46:11;;;;;;;7.70;2.03;;;;;;;;;;5088888;28;20336;-72
2021/03/12 10:48:39;;;;;;;6.87;2.10;;;;;;;;;;5080247;28;20210;-72
2021/03/12 10:51:08;;;;;;;5.93;2.27;;;;;;;;;;5091053;28;20227;-72
2021/03/12 10:53:43;;;;;;;3.40;1.40;;;;;;;;;;5090866;28;20269;-72
2021/03/12 10:56:10;;;;;;;3.37;1.60;;;;;;;;;;5098190;28;20775;-72
2021/03/12 10:58:38;;;;;;;2.60;1.17;;;;;;;;;;5096841;28;21503;-71
2021/03/12 11:01:06;;;;;;;3.93;1.37;;;;;;;;;;5096204;28;20205;-70
2021/03/12 11:03:34;;;;;;;5.23;1.47;;;;;;;;;;5099946;28;20240;-70
2021/03/12 11:06:02;;;;;;;4.63;1.60;;;;;;;;;;5085556;28;20228;-70
2021/03/12 11:08:30;;;;;;;3.97;1.63;;;;;;;;;;5079564;28;20262;-70
2021/03/12 11:10:57;;;;;;;5.47;1.40;;;;;;;;;;5079793;28;20238;-70
2021/03/12 11:13:24;;;;;;;5.83;1.70;;;;;;;;;;5079631;28;20237;-70
2021/03/12 11:15:51;;;;;;;5.83;2.17;;;;;;;;;;5079604;28;20264;-70
2021/03/12 11:18:20;;;;;;;5.97;2.00;;;;;;;;;;5079481;28;20240;-69
2021/03/12 11:20:47;;;;;;;5.03;1.77;;;;;;;;;;5079347;28;20207;-69
2021/03/12 11:23:14;;;;;;;5.20;1.57;;;;;;;;;;5079334;28;20673;-70
2021/03/12 11:25:42;;;;;;;8.47;2.17;;;;;;;;;;5079116;28;20254;-69
2021/03/12 11:28:10;;;;;;;8.23;1.63;;;;;;;;;;5079294;28;20289;-68
2021/03/12 11:30:37;;;;;;;3.40;1.30;;;;;;;;;;5078928;28;20283;-70
2021/03/12 11:33:05;;;;;;;6.87;1.50;;;;;;;;;;5080709;28;20544;-69
2021/03/12 11:35:33;;;;;;;3.93;1.50;;;;;;;;;;5092152;28;20228;-69
2021/03/12 11:38:00;;;;;;;4.07;1.37;;;;;;;;;;5095565;28;20230;-68
2021/03/12 11:40:27;;;;;;;5.03;1.40;;;;;;;;;;5078258;28;20627;-67
2021/03/12 11:42:55;;;;;;;4.37;1.10;;;;;;;;;;5079131;28;20232;-68
2021/03/12 11:45:22;;;;;;;5.80;1.57;;;;;;;;;;5082888;28;20297;-68
2021/03/12 11:47:51;;;;;;;6.23;1.30;;;;;;;;;;5083997;28;20206;-69
2021/03/12 11:50:32;;;;;;;6.17;1.57;;;;;;;;;;5083176;28;20230;-67
2021/03/12 11:52:59;;;;;;;3.90;1.53;;;;;;;;;;5089815;28;20640;-69
2021/03/12 11:55:26;;;;;;;8.37;1.20;;;;;;;;;;5088185;28;20249;-69
2021/03/12 11:57:53;;;;;;;8.33;1.50;;;;;;;;;;5098930;28;20206;-70
2021/03/12 12:00:22;;;;;;;3.70;1.20;;;;;;;;;;5093376;28;20718;-70
2021/03/12 12:02:49;;;;;;;3.53;1.30;;;;;;;;;;5078670;28;20243;-71
2021/03/12 12:05:17;;;;;;;2.57;1.37;;;;;;;;;;5082044;28;20224;-70
2021/03/12 12:07:44;;;;;;;6.00;1.47;;;;;;;;;;5088605;28;20292;-69
2021/03/12 12:10:12;;;;;;;3.60;1.40;;;;;;;;;;5098863;28;20241;-71
2021/03/12 12:12:41;;;;;;;5.97;1.73;;;;;;;;;;5098814;28;20311;-70
2021/03/12 12:15:09;;;;;;;4.63;1.50;;;;;;;;;;5098355;28;20586;-70
2021/03/12 12:17:37;;;;;;;3.07;1.00;;;;;;;;;;5098768;28;20236;-70
2021/03/12 12:20:04;;;;;;;3.60;1.43;;;;;;;;;;5098379;28;20235;-69
2021/03/12 12:22:31;;;;;;;4.57;1.47;;;;;;;;;;5098757;28;20202;-69
2021/03/12 12:24:58;;;;;;;4.80;1.20;;;;;;;;;;5094353;28;20257;-67
2021/03/12 12:27:25;;;;;;;5.90;1.40;;;;;;;;;;5081324;28;20286;-66
2021/03/12 12:29:52;;;;;;;4.27;1.77;;;;;;;;;;5078009;28;20256;-66
2021/03/12 12:32:20;;;;;;;5.53;1.83;;;;;;;;;;5078055;28;20198;-66
2021/03/12 12:34:48;;;;;;;4.67;1.40;;;;;;;;;;5083575;28;20257;-65
2021/03/12 12:37:15;;;;;;;6.00;1.47;;;;;;;;;;5078897;28;20209;-65
2021/03/12 12:39:42;;;;;;;5.47;1.57;;;;;;;;;;5077734;28;20262;-67
2021/03/12 12:42:09;;;;;;;5.30;1.47;;;;;;;;;;5091459;28;20292;-66
2021/03/12 12:44:38;;;;;;;6.50;1.80;;;;;;;;;;5088285;28;20305;-66
2021/03/12 12:47:05;;;;;;;3.80;1.20;;;;;;;;;;5087198;28;20206;-66
2021/03/12 12:49:32;;;;;;;5.70;1.87;;;;;;;;;;5077559;28;20214;-66
2021/03/12 12:52:00;;;;;;;2.83;1.20;;;;;;;;;;5077561;28;20288;-66
2021/03/12 12:54:27;;;;;;;7.53;1.40;;;;;;;;;;5077584;28;20309;-66
2021/03/12 12:56:54;;;;;;;4.30;1.40;;;;;;;;;;5077832;28;20244;-65
2021/03/12 12:59:24;;;;;;;2.37;1.50;;;;;;;;;;5087692;28;20206;-70
2021/03/12 13:01:51;;;;;;;2.90;1.17;;;;;;;;;;5076877;28;20210;-70
2021/03/12 13:04:23;;;;;;;5.53;1.60;;;;;;;;;;5076812;28;20226;-70
2021/03/12 13:06:50;;;;;;;2.30;1.03;;;;;;;;;;5077694;28;20298;-70
2021/03/12 13:09:18;;;;;;;1.40;1.00;;;;;;;;;;5077320;28;20634;-70
2021/03/12 13:11:45;;;;;;;5.07;1.33;;;;;;;;;;5077202;28;20660;-70
2021/03/12 13:14:12;;;;;;;5.47;2.00;;;;;;;;;;5077019;28;20294;-71
2021/03/12 13:16:39;;;;;;;4.00;1.10;;;;;;;;;;5083325;28;20209;-70
2021/03/12 13:19:07;;;;;;;1.93;1.00;;;;;;;;;;5097571;28;20206;-71
2021/03/12 13:21:41;;;;;;;4.70;1.33;;;;;;;;;;5097844;28;20296;-70
2021/03/12 13:24:09;;;;;;;4.50;1.23;;;;;;;;;;5098370;28;20266;-71
2021/03/12 13:26:37;;;;;;;2.63;1.00;;;;;;;;;;5079452;28;20203;-70
2021/03/12 13:29:04;;;;;;;3.50;0.87;;;;;;;;;;5077030;28;20662;-70
2021/03/12 13:31:31;;;;;;;2.00;0.73;;;;;;;;;;5075549;28;20289;-70
2021/03/12 13:34:01;;;;;;;0.90;0.90;;;;;;;;;;5075687;28;20210;-70
2021/03/12 13:36:28;;;;;;;4.90;1.20;;;;;;;;;;5087968;28;20205;-67
2021/03/12 13:38:55;;;;;;;3.97;1.30;;;;;;;;;;5076055;28;20242;-68
2021/03/12 13:41:22;;;;;;;4.70;1.67;;;;;;;;;;5076580;28;20249;-68
2021/03/12 13:43:50;;;;;;;1.47;1.10;;;;;;;;;;5077239;28;20217;-68
2021/03/12 13:46:17;;;;;;;6.60;1.50;;;;;;;;;;5079766;28;20284;-69
2021/03/12 13:48:44;;;;;;;6.13;2.03;;;;;;;;;;5085097;28;20210;-68
2021/03/12 13:51:12;;;;;;;3.17;1.13;;;;;;;;;;5087000;28;20251;-68
2021/03/12 13:53:40;;;;;;;3.17;1.07;;;;;;;;;;5092784;28;20235;-68
2021/03/12 13:56:08;;;;;;;3.77;1.20;;;;;;;;;;5097256;28;20316;-69
2021/03/12 13:58:35;;;;;;;4.37;1.27;;;;;;;;;;5097177;28;20213;-69
2021/03/12 14:01:03;;;;;;;3.83;1.00;;;;;;;;;;5088280;28;20244;-69
2021/03/12 14:03:30;;;;;;;4.90;1.13;;;;;;;;;;5087310;28;20255;-69
2021/03/12 14:05:57;;;;;;;1.37;0.80;;;;;;;;;;5100966;28;20253;-68
2021/03/12 14:08:24;;;;;;;4.33;1.23;;;;;;;;;;5100851;28;20292;-68
2021/03/12 14:10:51;;;;;;;4.07;1.07;;;;;;;;;;5101304;28;20209;-69
2021/03/12 14:13:18;;;;;;;2.57;0.80;;;;;;;;;;5100532;28;20268;-69
2021/03/12 14:15:45;;;;;;;2.87;1.10;;;;;;;;;;5080371;28;20734;-69
2021/03/12 14:18:13;;;;;;;5.60;0.83;;;;;;;;;;5080540;28;20210;-69
2021/03/12 14:20:40;;;;;;;3.03;0.73;;;;;;;;;;5092613;28;20637;-69
2021/03/12 14:23:08;;;;;;;1.47;0.80;;;;;;;;;;5099892;28;20215;-69
2021/03/12 14:25:36;;;;;;;1.27;0.93;;;;;;;;;;5100350;28;20278;-69
2021/03/12 14:28:03;;;;;;;3.80;0.80;;;;;;;;;;5100218;28;20229;-69
2021/03/12 14:30:30;;;;;;;1.53;0.63;;;;;;;;;;5100437;28;20202;-70
2021/03/12 14:32:57;;;;;;;5.93;1.20;;;;;;;;;;5100209;28;20665;-69
2021/03/12 14:35:25;;;;;;;3.60;1.30;;;;;;;;;;5091163;28;20265;-70
2021/03/12 14:37:52;;;;;;;1.80;1.00;;;;;;;;;;5080125;28;20299;-69
2021/03/12 14:40:20;;;;;;;0.90;0.73;;;;;;;;;;5080037;28;20206;-69
2021/03/12 14:42:47;;;;;;;2.30;0.97;;;;;;;;;;5079890;28;20206;-70
2021/03/12 14:45:14;;;;;;;3.87;0.90;;;;;;;;;;5080341;28;20222;-69
2021/03/12 14:47:41;;;;;;;2.90;0.87;;;;;;;;;;5083701;28;21061;-70
2021/03/12 14:50:09;;;;;;;3.60;0.80;;;;;;;;;;5079733;28;20583;-69
2021/03/12 14:52:57;;;;;;;3.83;1.00;;;;;;;;;;5079939;28;20217;-70
2021/03/12 14:55:27;;;;;;;5.37;1.13;;;;;;;;;;5079695;28;20678;-69